Time;durP1;ratioP1;P1;durP2;ratioP2;P2;SDS_P1;SDS_P2;PMS_P1;PMS_P2;Temp;Humidity;BMP_temperature;BMP_pressure;BME280_temperature;BME280_humidity;BME280_pressure;Samples;Min_cycle;Max_cycle;Signal;HPM_P1;HPM_P2
2021/03/27 00:00:03;;;;;;;49.60;20.52;;;7.90;74.00;;;;;;5077080;28;20258;-72
2021/03/27 00:02:36;;;;;;;34.63;19.95;;;7.80;74.10;;;;;;5077074;28;20032;-72
2021/03/27 00:05:16;;;;;;;36.67;20.67;;;7.70;74.30;;;;;;5076857;28;20028;-72
2021/03/27 00:08:01;;;;;;;32.92;19.48;;;7.60;74.60;;;;;;5076945;28;20424;-72
2021/03/27 00:10:37;;;;;;;33.28;18.83;;;7.50;74.90;;;;;;5076888;28;20035;-72
2021/03/27 00:13:13;;;;;;;36.00;19.48;;;7.30;75.20;;;;;;5076564;28;20055;-72
2021/03/27 00:15:56;;;;;;;37.55;19.60;;;7.30;75.40;;;;;;5076918;28;20321;-72
2021/03/27 00:18:42;;;;;;;37.40;21.42;;;7.30;75.70;;;;;;5076870;28;20424;-73
2021/03/27 00:21:32;;;;;;;36.88;20.35;;;7.30;75.40;;;;;;5076857;28;20060;-74
2021/03/27 00:24:12;;;;;;;35.53;20.90;;;7.30;75.50;;;;;;5076461;28;20431;-73
2021/03/27 00:26:50;;;;;;;32.78;18.75;;;7.40;75.60;;;;;;5076662;28;20052;-71
2021/03/27 00:29:47;;;;;;;36.70;18.52;;;7.40;75.40;;;;;;5076876;28;20416;-71
2021/03/27 00:32:12;;;;;;;;;;;7.40;74.90;;;;;;5062616;28;20040;-74
2021/03/27 00:34:43;;;;;;;34.37;19.60;;;7.30;74.50;;;;;;5076670;28;19953;-71
2021/03/27 00:37:14;;;;;;;36.55;20.30;;;7.30;74.60;;;;;;5076981;28;20095;-71
2021/03/27 00:39:48;;;;;;;36.50;20.15;;;7.30;74.10;;;;;;5076660;28;20032;-72
2021/03/27 00:42:29;;;;;;;34.15;20.33;;;7.40;74.40;;;;;;5058791;28;20328;-71
2021/03/27 00:45:10;;;;;;;32.72;18.90;;;7.50;74.10;;;;;;5076463;28;20064;-71
2021/03/27 00:47:40;;;;;;;39.60;20.70;;;7.50;74.50;;;;;;5076287;28;20493;-72
2021/03/27 00:50:15;;;;;;;36.17;19.65;;;7.50;74.60;;;;;;5076453;28;20025;-71
2021/03/27 00:52:47;;;;;;;37.85;20.15;;;7.40;74.80;;;;;;5076769;28;20034;-72
2021/03/27 00:55:20;;;;;;;36.28;19.33;;;7.40;75.00;;;;;;5076413;28;20040;-73
2021/03/27 00:57:55;;;;;;;35.55;18.83;;;7.40;75.10;;;;;;5076676;28;20035;-71
2021/03/27 01:00:39;;;;;;;32.97;18.35;;;7.30;75.20;;;;;;5058702;28;20420;-72
2021/03/27 01:03:28;;;;;;;34.67;20.75;;;7.30;75.00;;;;;;5076218;28;20032;-73
2021/03/27 01:05:55;;;;;;;34.45;21.00;;;7.20;75.00;;;;;;5076573;28;20064;-72
2021/03/27 01:08:24;;;;;;;36.78;20.42;;;7.10;74.90;;;;;;5076727;28;20031;-72
2021/03/27 01:10:59;;;;;;;35.28;20.52;;;7.10;74.90;;;;;;5076537;28;20028;-73
2021/03/27 01:13:44;;;;;;;35.95;21.80;;;7.20;75.00;;;;;;5076221;28;20320;-74
2021/03/27 01:16:14;;;;;;;34.25;20.95;;;7.20;75.00;;;;;;5076234;28;20044;-71
2021/03/27 01:18:46;;;;;;;35.58;21.80;;;7.20;74.90;;;;;;5076252;28;20039;-72
2021/03/27 01:21:16;;;;;;;36.38;22.75;;;7.10;75.30;;;;;;5076329;28;20048;-71
2021/03/27 01:23:43;;;;;;;33.67;21.40;;;7.10;75.70;;;;;;5076422;28;20039;-72
2021/03/27 01:26:14;;;;;;;43.92;24.13;;;7.10;75.90;;;;;;5077913;28;20059;-72
2021/03/27 01:28:51;;;;;;;38.70;24.30;;;7.10;76.30;;;;;;5080062;28;20021;-71
2021/03/27 01:31:19;;;;;;;35.85;21.73;;;7.10;76.70;;;;;;5080426;28;20059;-71
2021/03/27 01:33:54;;;;;;;37.78;23.23;;;7.20;76.40;;;;;;5079647;28;20031;-71
2021/03/27 01:36:37;;;;;;;43.88;24.25;;;7.30;76.00;;;;;;5080192;28;20052;-71
2021/03/27 01:39:13;;;;;;;36.08;23.70;;;7.30;76.30;;;;;;5079924;28;20099;-71
2021/03/27 01:41:52;;;;;;;44.75;23.60;;;7.40;76.60;;;;;;5079852;28;20025;-72
2021/03/27 01:44:41;;;;;;;32.58;22.20;;;7.50;76.60;;;;;;5079527;28;20024;-72
2021/03/27 01:47:07;;;;;;;37.15;24.35;;;7.50;76.40;;;;;;5079808;28;20020;-74
2021/03/27 01:49:49;;;;;;;39.55;24.45;;;7.50;75.80;;;;;;5061767;28;20066;-73
2021/03/27 01:52:19;;;;;;;36.03;24.08;;;7.70;75.80;;;;;;5079736;28;20064;-74
2021/03/27 01:55:14;;;;;;;36.90;24.85;;;7.70;75.60;;;;;;5079376;28;20028;-73
2021/03/27 01:57:58;;;;;;;40.38;24.48;;;7.70;75.00;;;;;;5070257;28;20047;-74
2021/03/27 02:00:31;;;;;;;41.00;24.38;;;7.80;74.70;;;;;;5079416;28;20032;-74
2021/03/27 02:03:26;;;;;;;39.92;24.08;;;7.90;74.50;;;;;;5079416;28;20036;-73
2021/03/27 02:05:53;;;;;;;38.40;22.20;;;8.10;74.70;;;;;;5064169;28;20053;-73
2021/03/27 02:08:43;;;;;;;37.88;22.83;;;8.10;74.60;;;;;;5079394;28;20028;-74
2021/03/27 02:11:25;;;;;;;35.10;24.48;;;8.10;75.10;;;;;;5079564;28;20028;-73
2021/03/27 02:14:13;;;;;;;40.25;24.63;;;8.10;75.00;;;;;;5079339;28;20070;-73
2021/03/27 02:17:03;;;;;;;39.10;23.25;;;8.10;75.10;;;;;;5079388;28;20044;-73
2021/03/27 02:19:47;;;;;;;37.78;24.83;;;8.10;75.30;;;;;;5079293;28;20109;-73
2021/03/27 02:22:19;;;;;;;35.55;22.85;;;8.20;75.00;;;;;;5079007;28;20028;-73
2021/03/27 02:25:30;;;;;;;36.50;24.40;;;8.20;75.70;;;;;;5078801;28;20036;-74
2021/03/27 02:28:34;;;;;;;37.67;23.15;;;8.30;74.80;;;;;;5061334;28;20328;-74
2021/03/27 02:31:21;;;;;;;41.45;25.02;;;8.40;75.20;;;;;;5078990;28;20045;-74
2021/03/27 02:33:58;;;;;;;37.30;24.65;;;8.40;74.70;;;;;;5078658;28;20028;-74
2021/03/27 02:36:38;;;;;;;37.80;25.13;;;8.40;74.00;;;;;;5060464;28;20024;-74
2021/03/27 02:39:24;;;;;;;37.55;22.83;;;8.40;73.90;;;;;;5078821;28;20146;-73
2021/03/27 02:42:24;;;;;;;35.67;22.95;;;8.40;74.90;;;;;;5078741;28;20031;-73
2021/03/27 02:45:01;;;;;;;39.55;24.38;;;8.50;74.60;;;;;;5078322;28;20321;-73
2021/03/27 02:47:33;;;;;;;38.78;23.70;;;8.50;73.50;;;;;;5078455;28;20036;-73
2021/03/27 02:50:11;;;;;;;35.20;24.60;;;8.50;74.10;;;;;;5078359;28;20477;-74
2021/03/27 02:53:03;;;;;;;37.47;24.00;;;8.50;74.40;;;;;;5078250;28;20029;-73
2021/03/27 02:56:00;;;;;;;33.88;24.02;;;8.50;73.90;;;;;;5078583;28;20035;-73
2021/03/27 02:58:47;;;;;;;37.22;23.05;;;8.50;74.00;;;;;;5078531;28;20285;-73
2021/03/27 03:01:29;;;;;;;34.85;23.77;;;8.50;75.10;;;;;;5078452;28;20037;-74
2021/03/27 03:04:25;;;;;;;37.13;25.35;;;8.50;75.50;;;;;;5077955;28;20036;-73
2021/03/27 03:07:03;;;;;;;40.15;25.30;;;8.50;75.10;;;;;;5078125;28;20093;-74
2021/03/27 03:09:36;;;;;;;36.67;25.83;;;8.50;75.10;;;;;;5078075;28;20027;-74
2021/03/27 03:12:05;;;;;;;39.10;24.27;;;8.40;75.00;;;;;;5077920;28;20017;-74
2021/03/27 03:15:11;;;;;;;41.53;26.55;;;8.40;75.40;;;;;;5077870;28;20114;-74
2021/03/27 03:17:46;;;;;;;36.67;24.80;;;8.30;74.80;;;;;;5078189;28;20032;-74
2021/03/27 03:20:30;;;;;;;35.90;24.73;;;8.30;74.90;;;;;;5077731;28;20040;-74
2021/03/27 03:23:17;;;;;;;36.33;26.02;;;8.30;75.00;;;;;;5078061;28;20032;-73
2021/03/27 03:26:16;;;;;;;33.78;24.08;;;8.10;75.80;;;;;;5077683;28;20131;-73
2021/03/27 03:29:12;;;;;;;37.42;24.20;;;8.10;75.60;;;;;;5077590;28;20312;-73
2021/03/27 03:32:15;;;;;;;33.97;24.63;;;8.10;75.30;;;;;;5077831;28;20074;-73
2021/03/27 03:35:11;;;;;;;38.03;26.00;;;8.00;75.20;;;;;;5077428;28;20021;-74
2021/03/27 03:38:14;;;;;;;34.58;24.85;;;7.80;75.20;;;;;;5077783;28;20028;-73
2021/03/27 03:41:06;;;;;;;36.58;24.80;;;7.70;75.90;;;;;;5077366;28;20028;-73
2021/03/27 03:43:55;;;;;;;36.90;24.90;;;7.50;76.60;;;;;;5077649;28;20078;-73
2021/03/27 03:46:57;;;;;;;34.85;24.40;;;7.30;76.80;;;;;;5057114;28;20052;-73
2021/03/27 03:49:35;;;;;;;43.33;26.38;;;7.10;77.20;;;;;;5076428;28;20444;-73
2021/03/27 03:52:24;;;;;;;43.60;28.00;;;7.00;76.90;;;;;;5077127;28;20416;-71
2021/03/27 03:55:00;;;;;;;38.50;26.90;;;6.90;77.20;;;;;;5077329;28;20028;-71
2021/03/27 03:57:29;;;;;;;37.90;25.23;;;6.80;77.00;;;;;;5077094;28;20090;-71
2021/03/27 04:00:18;;;;;;;46.40;26.33;;;6.70;77.50;;;;;;5077114;28;20025;-71
2021/03/27 04:02:51;;;;;;;40.97;25.75;;;6.70;77.90;;;;;;5077328;28;20024;-71
2021/03/27 04:05:28;;;;;;;43.78;25.33;;;6.60;78.30;;;;;;5077101;28;20024;-71
2021/03/27 04:08:05;;;;;;;41.47;26.63;;;6.70;77.90;;;;;;5077459;28;20029;-71
2021/03/27 04:10:33;;;;;;;41.20;27.23;;;6.60;77.80;;;;;;5077268;28;20320;-71
2021/03/27 04:13:05;;;;;;;42.05;26.13;;;6.60;78.20;;;;;;5076869;28;20020;-71
2021/03/27 04:15:55;;;;;;;39.03;26.10;;;6.50;78.40;;;;;;5076925;28;20024;-71
2021/03/27 04:18:29;;;;;;;37.72;26.60;;;6.40;80.30;;;;;;5076940;28;20028;-71
2021/03/27 04:21:02;;;;;;;41.20;26.63;;;6.50;81.90;;;;;;5077075;28;20347;-71
2021/03/27 04:23:59;;;;;;;42.00;26.90;;;6.50;80.10;;;;;;5077121;28;20029;-71
2021/03/27 04:26:31;;;;;;;;;;;6.60;78.60;;;;;;5076971;28;20428;-71
2021/03/27 04:29:15;;;;;;;44.25;26.40;;;6.50;78.20;;;;;;5076835;28;19904;-71
2021/03/27 04:31:49;;;;;;;41.25;26.95;;;6.40;79.20;;;;;;5076695;28;20033;-72
2021/03/27 04:34:31;;;;;;;41.42;27.08;;;6.40;79.30;;;;;;5076703;28;20466;-71
2021/03/27 04:37:08;;;;;;;40.70;27.27;;;6.40;79.50;;;;;;5076934;28;20362;-71
2021/03/27 04:39:49;;;;;;;43.95;27.70;;;6.30;79.60;;;;;;5076673;28;20409;-71
2021/03/27 04:42:32;;;;;;;44.70;28.67;;;6.20;80.30;;;;;;5076780;28;20025;-72
2021/03/27 04:45:25;;;;;;;41.65;29.13;;;6.20;81.00;;;;;;5076431;28;20108;-71
2021/03/27 04:48:16;;;;;;;40.97;28.50;;;6.20;81.60;;;;;;5076699;28;20025;-71
2021/03/27 04:50:50;;;;;;;42.13;29.08;;;6.20;82.00;;;;;;5070626;28;20037;-71
2021/03/27 04:53:37;;;;;;;47.40;29.27;;;6.30;82.20;;;;;;5076673;28;20029;-71
2021/03/27 04:56:21;;;;;;;45.35;29.20;;;6.40;83.50;;;;;;5076693;28;20037;-71
2021/03/27 04:59:02;;;;;;;40.42;27.02;;;6.70;84.50;;;;;;5076377;28;20033;-71
2021/03/27 05:01:46;;;;;;;36.72;26.20;;;7.00;85.50;;;;;;5080449;28;20400;-71
2021/03/27 05:04:34;;;;;;;42.35;27.30;;;7.30;85.80;;;;;;5080492;28;20032;-71
2021/03/27 05:07:10;;;;;;;37.83;25.52;;;7.40;85.60;;;;;;5080359;28;20120;-71
2021/03/27 05:09:49;;;;;;;34.92;23.70;;;7.60;86.20;;;;;;5080398;28;20507;-71
2021/03/27 05:12:20;;;;;;;31.02;23.80;;;7.70;86.10;;;;;;5080533;28;20406;-72
2021/03/27 05:15:05;;;;;;;34.15;23.65;;;7.70;86.50;;;;;;5080146;28;20110;-72
2021/03/27 05:17:45;;;;;;;32.35;22.77;;;7.80;86.40;;;;;;5080564;28;20032;-71
2021/03/27 05:20:17;;;;;;;32.90;23.70;;;7.90;86.70;;;;;;5080091;28;20298;-71
2021/03/27 05:23:07;;;;;;;34.15;22.45;;;8.10;86.40;;;;;;5080196;28;20316;-72
2021/03/27 05:25:41;;;;;;;31.05;22.77;;;8.10;86.40;;;;;;5079739;28;20060;-71
2021/03/27 05:28:25;;;;;;;32.30;22.63;;;8.20;86.10;;;;;;5062135;28;20036;-71
2021/03/27 05:31:06;;;;;;;30.17;23.17;;;8.30;86.10;;;;;;5079915;28;20035;-71
2021/03/27 05:33:39;;;;;;;29.85;22.85;;;8.30;85.60;;;;;;5080022;28;20372;-72
2021/03/27 05:36:19;;;;;;;32.42;23.55;;;8.20;85.80;;;;;;5079936;28;20424;-71
2021/03/27 05:38:56;;;;;;;33.75;22.88;;;8.30;85.60;;;;;;5080054;28;20417;-72
2021/03/27 05:41:33;;;;;;;32.08;22.98;;;8.30;85.60;;;;;;5079712;28;20024;-73
2021/03/27 05:44:11;;;;;;;32.53;22.92;;;8.30;85.70;;;;;;5079486;28;20028;-73
2021/03/27 05:46:45;;;;;;;30.30;22.77;;;8.30;85.90;;;;;;5079591;28;20365;-73
2021/03/27 05:49:48;;;;;;;33.97;21.70;;;8.30;86.30;;;;;;5061886;28;20029;-73
2021/03/27 05:52:24;;;;;;;35.10;23.75;;;8.20;86.70;;;;;;5079451;28;20048;-72
2021/03/27 05:55:14;;;;;;;31.45;22.52;;;8.20;86.80;;;;;;5079443;28;20032;-71
2021/03/27 05:57:46;;;;;;;32.40;22.02;;;8.30;86.30;;;;;;5079506;28;20020;-72
2021/03/27 06:00:15;;;;;;;31.00;21.95;;;8.30;86.60;;;;;;5079416;28;20040;-72
2021/03/27 06:02:46;;;;;;;29.30;21.60;;;8.30;86.60;;;;;;5079588;28;20120;-71
2021/03/27 06:05:45;;;;;;;30.83;22.17;;;8.20;86.80;;;;;;5079199;28;20032;-72
2021/03/27 06:08:22;;;;;;;29.58;21.25;;;8.30;86.80;;;;;;5079521;28;20020;-73
2021/03/27 06:11:08;;;;;;;30.27;21.75;;;8.40;86.20;;;;;;5078764;28;20024;-73
2021/03/27 06:13:46;;;;;;;28.00;21.00;;;8.50;85.40;;;;;;5078681;28;20036;-73
2021/03/27 06:16:32;;;;;;;31.92;22.13;;;8.70;84.60;;;;;;5079397;28;20033;-74
2021/03/27 06:19:43;;;;;;;33.35;22.50;;;8.70;84.50;;;;;;5079089;28;20024;-73
2021/03/27 06:22:28;;;;;;;27.33;20.95;;;8.50;85.20;;;;;;5078985;28;20420;-71
2021/03/27 06:25:15;;;;;;;36.00;23.75;;;8.50;85.30;;;;;;5078844;28;20446;-72
2021/03/27 06:28:11;;;;;;;49.67;23.63;;;8.50;85.20;;;;;;5039191;28;20034;-72
2021/03/27 06:30:48;;;;;;;32.60;22.58;;;8.40;85.50;;;;;;5039018;28;20018;-73
2021/03/27 06:33:17;;;;;;;37.03;23.80;;;8.40;86.10;;;;;;5037642;28;20116;-73
2021/03/27 06:36:10;;;;;;;30.63;21.75;;;8.40;86.20;;;;;;5038775;28;20029;-72
2021/03/27 06:39:04;;;;;;;33.85;22.33;;;8.40;86.30;;;;;;5038894;28;20088;-73
2021/03/27 06:41:48;;;;;;;28.30;21.98;;;8.40;86.00;;;;;;5038895;28;20064;-73
2021/03/27 06:44:32;;;;;;;36.10;21.92;;;8.30;86.20;;;;;;5037387;28;20033;-73
2021/03/27 06:47:21;;;;;;;30.95;22.27;;;8.30;87.10;;;;;;5038645;28;20026;-73
2021/03/27 06:50:28;;;;;;;29.92;21.88;;;8.30;86.80;;;;;;5038597;28;20100;-73
2021/03/27 06:53:31;;;;;;;29.38;21.35;;;8.30;86.60;;;;;;5037347;28;20033;-73
2021/03/27 06:56:27;;;;;;;33.55;21.40;;;8.30;86.60;;;;;;5038426;28;20033;-73
2021/03/27 06:58:56;;;;;;;34.60;23.00;;;8.30;86.50;;;;;;5038330;28;20322;-72
2021/03/27 07:01:49;;;;;;;35.17;22.92;;;8.40;86.50;;;;;;5038810;28;20030;-73
2021/03/27 07:04:35;;;;;;;29.58;22.02;;;8.50;86.20;;;;;;5038268;28;20421;-73
2021/03/27 07:07:04;;;;;;;;;;;8.60;85.90;;;;;;5038656;28;20033;-73
2021/03/27 07:09:48;;;;;;;28.50;21.58;;;8.70;85.30;;;;;;5038124;28;19912;-73
2021/03/27 07:12:26;;;;;;;30.83;22.67;;;8.70;84.50;;;;;;5038167;28;20034;-73
2021/03/27 07:15:36;;;;;;;30.73;22.67;;;8.70;84.20;;;;;;5037937;28;20048;-73
2021/03/27 07:18:15;;;;;;;33.75;22.92;;;8.70;84.10;;;;;;5036238;28;20387;-72
2021/03/27 07:20:46;;;;;;;32.05;23.20;;;8.80;82.50;;;;;;5034566;28;20034;-73
2021/03/27 07:23:24;;;;;;;29.27;23.05;;;8.90;82.20;;;;;;5038081;28;20033;-72
2021/03/27 07:26:11;;;;;;;38.25;24.25;;;9.00;82.00;;;;;;5051133;28;20491;-74
2021/03/27 07:28:51;;;;;;;;;;;9.20;80.90;;;;;;5060366;28;20134;-72
2021/03/27 07:31:35;;;;;;;28.30;21.98;;;9.40;79.20;;;;;;5078137;28;19904;-73
2021/03/27 07:34:37;;;;;;;35.47;22.77;;;9.60;78.80;;;;;;5077502;28;20024;-74
2021/03/27 07:37:18;;;;;;;29.02;21.80;;;9.70;79.90;;;;;;5077709;28;20040;-73
2021/03/27 07:40:06;;;;;;;29.75;22.45;;;9.90;78.60;;;;;;5077523;28;20058;-73
2021/03/27 07:42:52;;;;;;;34.38;22.88;;;9.90;78.60;;;;;;5077615;28;20025;-74
2021/03/27 07:45:47;;;;;;;29.42;21.30;;;10.10;78.70;;;;;;5077545;28;20357;-73
2021/03/27 07:48:37;;;;;;;27.77;20.88;;;10.30;77.30;;;;;;5077478;28;20036;-74
2021/03/27 07:51:21;;;;;;;36.63;21.33;;;10.40;77.90;;;;;;5077411;28;20024;-72
2021/03/27 07:54:01;;;;;;;26.13;21.17;;;10.40;78.50;;;;;;5077485;28;20032;-73
2021/03/27 07:56:43;;;;;;;33.10;22.02;;;10.40;77.70;;;;;;5077462;28;20024;-72
2021/03/27 07:59:40;;;;;;;32.42;22.30;;;10.40;77.10;;;;;;5077257;28;20078;-72
2021/03/27 08:02:43;;;;;;;27.10;21.08;;;10.50;76.90;;;;;;5077325;28;20032;-72
2021/03/27 08:05:30;;;;;;;27.98;20.95;;;10.50;76.00;;;;;;5076816;28;20036;-73
2021/03/27 08:08:02;;;;;;;28.42;21.27;;;10.60;76.00;;;;;;5077217;28;20317;-72
2021/03/27 08:11:03;;;;;;;34.22;21.80;;;10.60;75.70;;;;;;5077250;28;20032;-72
2021/03/27 08:14:09;;;;;;;26.08;21.35;;;10.80;75.20;;;;;;5076916;28;20024;-72
2021/03/27 08:16:47;;;;;;;24.85;19.98;;;11.90;72.10;;;;;;5077145;28;20031;-72
2021/03/27 08:19:39;;;;;;;25.05;20.17;;;13.00;68.10;;;;;;5076897;28;20078;-72
2021/03/27 08:22:21;;;;;;;28.80;20.90;;;13.70;66.80;;;;;;5076666;28;20024;-71
2021/03/27 08:25:10;;;;;;;25.92;21.50;;;14.40;64.30;;;;;;5076695;28;20036;-72
2021/03/27 08:27:55;;;;;;;27.65;20.17;;;14.70;61.90;;;;;;5076543;28;20317;-71
2021/03/27 08:30:51;;;;;;;25.35;19.80;;;15.00;62.30;;;;;;5076834;28;20021;-72
2021/03/27 08:33:46;;;;;;;23.25;19.67;;;15.50;62.10;;;;;;5076739;28;20032;-71
2021/03/27 08:36:48;;;;;;;24.83;18.52;;;15.90;60.20;;;;;;5058255;28;20112;-71
2021/03/27 08:39:35;;;;;;;26.52;20.08;;;15.70;60.10;;;;;;5076742;28;20028;-71
2021/03/27 08:42:13;;;;;;;26.33;18.75;;;15.90;59.80;;;;;;5076957;28;20315;-71
2021/03/27 08:44:57;;;;;;;25.52;19.70;;;16.20;60.30;;;;;;5076383;28;20043;-71
2021/03/27 08:47:32;;;;;;;27.13;18.67;;;16.50;59.90;;;;;;5076672;28;20417;-71
2021/03/27 08:50:30;;;;;;;21.02;18.15;;;16.70;57.70;;;;;;5076554;28;20070;-71
2021/03/27 08:53:14;;;;;;;20.40;17.40;;;16.40;59.40;;;;;;5076835;28;20087;-71
2021/03/27 08:56:17;;;;;;;20.17;17.17;;;16.30;59.80;;;;;;5076831;28;20037;-71
2021/03/27 08:58:45;;;;;;;21.00;18.15;;;15.90;61.30;;;;;;5076840;28;20315;-71
2021/03/27 09:01:32;;;;;;;24.88;17.98;;;15.30;61.80;;;;;;5076666;28;20037;-71
2021/03/27 09:04:10;;;;;;;23.80;18.75;;;14.50;63.60;;;;;;5076317;28;20078;-71
2021/03/27 09:06:53;;;;;;;22.25;17.98;;;13.70;65.80;;;;;;5076499;28;20021;-71
2021/03/27 09:09:50;;;;;;;21.83;17.77;;;13.30;68.60;;;;;;5058592;28;20035;-72
2021/03/27 09:12:48;;;;;;;22.73;18.58;;;13.20;69.70;;;;;;5076571;28;20024;-71
2021/03/27 09:15:51;;;;;;;28.05;19.77;;;13.00;68.40;;;;;;5076232;28;20025;-72
2021/03/27 09:18:41;;;;;;;25.35;20.30;;;12.90;70.20;;;;;;5054949;28;20037;-72
2021/03/27 09:21:38;;;;;;;23.80;17.52;;;12.70;70.20;;;;;;5076222;28;20103;-72
2021/03/27 09:24:10;;;;;;;26.88;19.35;;;12.50;70.30;;;;;;5076565;28;20368;-72
2021/03/27 09:26:44;;;;;;;25.80;20.55;;;12.30;71.00;;;;;;5075807;28;20045;-72
2021/03/27 09:29:51;;;;;;;25.67;19.65;;;12.10;71.60;;;;;;5076100;28;20029;-73
2021/03/27 09:32:32;;;;;;;27.73;19.45;;;12.00;72.50;;;;;;5034381;28;20022;-72
2021/03/27 09:35:25;;;;;;;25.85;19.67;;;12.00;71.40;;;;;;5034324;28;20030;-72
2021/03/27 09:38:09;;;;;;;23.70;18.80;;;12.00;70.60;;;;;;5066859;28;20082;-72
2021/03/27 09:40:59;;;;;;;24.88;19.20;;;12.00;71.10;;;;;;5076324;28;20043;-72
2021/03/27 09:43:49;;;;;;;26.48;20.45;;;12.10;71.50;;;;;;5076240;28;20029;-72
2021/03/27 09:46:37;;;;;;;26.92;19.58;;;12.20;70.30;;;;;;5076477;28;20024;-72
2021/03/27 09:49:18;;;;;;;23.65;18.10;;;12.10;71.20;;;;;;5079612;28;20028;-72
2021/03/27 09:52:02;;;;;;;25.13;19.50;;;12.20;70.70;;;;;;5079663;28;20431;-72
2021/03/27 09:54:45;;;;;;;27.13;18.83;;;12.30;70.70;;;;;;5079406;28;20085;-72
2021/03/27 09:57:26;;;;;;;24.77;18.00;;;12.50;70.90;;;;;;5079551;28;20035;-72
2021/03/27 10:00:07;;;;;;;24.10;18.15;;;12.60;70.50;;;;;;5079463;28;20104;-72
2021/03/27 10:02:38;;;;;;;32.38;20.02;;;12.60;70.90;;;;;;5079340;28;20059;-72
2021/03/27 10:05:04;;;;;;;25.33;19.20;;;12.60;70.00;;;;;;5079118;28;20025;-72
2021/03/27 10:07:41;;;;;;;22.60;18.45;;;12.80;70.30;;;;;;5061506;28;20031;-72
2021/03/27 10:10:29;;;;;;;21.40;15.60;;;13.10;69.80;;;;;;5079238;28;20075;-71
2021/03/27 10:13:13;;;;;;;24.52;17.05;;;13.40;69.20;;;;;;5077838;28;20036;-71
2021/03/27 10:15:54;;;;;;;22.92;16.42;;;13.70;69.00;;;;;;5079000;28;20100;-72
2021/03/27 10:18:38;;;;;;;21.55;16.85;;;13.70;66.60;;;;;;5079130;28;20155;-72
2021/03/27 10:21:25;;;;;;;24.65;16.88;;;13.90;65.70;;;;;;5079252;28;20059;-72
2021/03/27 10:24:12;;;;;;;23.33;17.98;;;13.90;66.70;;;;;;5079265;28;20041;-71
2021/03/27 10:26:50;;;;;;;20.42;16.48;;;14.00;65.80;;;;;;5078773;28;20079;-71
2021/03/27 10:29:37;;;;;;;18.58;16.60;;;14.10;65.30;;;;;;5078847;28;20039;-72
2021/03/27 10:32:25;;;;;;;20.00;16.10;;;14.10;66.30;;;;;;5079027;28;20024;-71
2021/03/27 10:35:00;;;;;;;24.67;17.10;;;14.40;66.90;;;;;;5060935;28;20024;-71
2021/03/27 10:37:42;;;;;;;24.30;16.30;;;14.50;64.10;;;;;;5078802;28;20024;-71
2021/03/27 10:40:33;;;;;;;20.58;16.23;;;14.40;66.00;;;;;;5078693;28;20082;-71
2021/03/27 10:43:14;;;;;;;24.27;16.27;;;14.30;65.00;;;;;;5078674;28;20024;-71
2021/03/27 10:46:18;;;;;;;19.10;15.13;;;14.30;65.80;;;;;;5078746;28;20408;-71
2021/03/27 10:49:18;;;;;;;22.48;16.00;;;14.40;66.80;;;;;;5078699;28;20016;-71
2021/03/27 10:52:12;;;;;;;22.35;16.65;;;14.10;64.90;;;;;;5078595;28;20027;-71
2021/03/27 10:55:15;;;;;;;21.80;16.75;;;14.00;65.20;;;;;;5078309;28;20028;-71
2021/03/27 10:58:09;;;;;;;22.38;16.67;;;14.00;66.20;;;;;;5060227;28;20074;-71
2021/03/27 11:00:59;;;;;;;18.30;15.73;;;14.00;67.70;;;;;;5078187;28;20025;-71
2021/03/27 11:03:52;;;;;;;22.40;17.13;;;14.00;68.10;;;;;;5078290;28;20048;-71
2021/03/27 11:06:36;;;;;;;18.52;15.45;;;13.90;66.90;;;;;;5078214;28;20025;-71
2021/03/27 11:09:29;;;;;;;20.92;16.38;;;14.00;67.10;;;;;;5078246;28;20031;-71
2021/03/27 11:12:36;;;;;;;20.45;15.63;;;14.10;66.80;;;;;;5078235;28;20028;-71
2021/03/27 11:15:41;;;;;;;21.02;15.65;;;14.30;66.50;;;;;;5077897;28;20032;-71
2021/03/27 11:18:43;;;;;;;22.85;16.13;;;14.50;65.90;;;;;;5066813;28;20037;-71
2021/03/27 11:21:28;;;;;;;22.15;17.10;;;14.80;65.50;;;;;;5078186;28;20098;-71
2021/03/27 11:24:09;;;;;;;25.25;17.75;;;15.30;62.20;;;;;;5078206;28;20037;-71
2021/03/27 11:26:43;;;;;;;22.63;18.23;;;15.50;61.60;;;;;;5077862;28;20040;-71
2021/03/27 11:29:38;;;;;;;20.27;16.30;;;15.50;62.40;;;;;;5077860;28;20059;-71
2021/03/27 11:32:27;;;;;;;21.35;16.67;;;15.50;63.00;;;;;;5078237;28;20029;-71
2021/03/27 11:35:12;;;;;;;24.05;16.58;;;15.20;62.00;;;;;;5077612;28;20044;-71
2021/03/27 11:37:41;;;;;;;23.27;17.98;;;14.90;62.60;;;;;;5078140;28;20025;-71
2021/03/27 11:40:18;;;;;;;20.60;16.50;;;15.00;60.70;;;;;;5077457;28;20028;-71
2021/03/27 11:42:59;;;;;;;19.33;16.35;;;15.10;63.80;;;;;;5077366;28;20021;-71
2021/03/27 11:45:35;;;;;;;19.33;15.88;;;15.10;62.30;;;;;;5077194;28;20036;-71
2021/03/27 11:48:09;;;;;;;;;;;15.10;64.50;;;;;;5077928;28;20067;-71
2021/03/27 11:50:43;;;;;;;22.55;15.63;;;15.40;61.90;;;;;;5076234;28;19938;-71
2021/03/27 11:53:15;;;;;;;22.35;17.42;;;15.50;62.80;;;;;;5059504;28;20033;-71
2021/03/27 11:56:02;;;;;;;22.02;17.38;;;15.60;61.40;;;;;;5077418;28;20029;-72
2021/03/27 12:01:38;;;;;;;23.77;17.90;;;15.40;62.60;;;;;;5077423;28;20040;-71
2021/03/27 12:04:10;;;;;;;25.00;17.80;;;15.40;62.00;;;;;;5077105;28;20064;-71
2021/03/27 12:06:50;;;;;;;24.75;16.52;;;15.20;63.70;;;;;;5077020;28;20103;-73
2021/03/27 12:09:29;;;;;;;26.65;18.90;;;15.20;62.80;;;;;;5076527;28;20020;-73
2021/03/27 12:12:13;;;;;;;25.65;19.70;;;15.20;60.30;;;;;;5077238;28;20020;-73
2021/03/27 12:14:53;;;;;;;24.02;18.25;;;15.30;59.50;;;;;;5076992;28;20023;-73
2021/03/27 12:17:35;;;;;;;25.75;18.90;;;15.10;59.60;;;;;;5076946;28;20032;-73
2021/03/27 12:20:25;;;;;;;28.52;18.50;;;14.90;60.30;;;;;;5076894;28;20028;-72
2021/03/27 12:23:00;;;;;;;24.75;18.52;;;14.80;61.20;;;;;;5077311;28;20044;-73
2021/03/27 12:25:48;;;;;;;22.30;18.13;;;14.60;61.40;;;;;;5076575;28;20317;-73
2021/03/27 12:28:22;;;;;;;27.35;19.13;;;14.40;62.40;;;;;;5076798;28;20056;-73
2021/03/27 12:31:19;;;;;;;24.25;19.10;;;14.10;62.80;;;;;;5076861;28;20028;-73
2021/03/27 12:34:18;;;;;;;23.48;18.10;;;13.90;63.50;;;;;;5058874;28;20027;-73
2021/03/27 12:36:50;;;;;;;24.27;15.80;;;13.80;64.50;;;;;;5076823;28;20028;-73
2021/03/27 12:39:27;;;;;;;27.25;19.50;;;13.70;65.10;;;;;;5076758;28;20025;-72
2021/03/27 12:42:01;;;;;;;25.20;17.90;;;13.70;64.90;;;;;;5076900;28;20017;-71
2021/03/27 12:44:50;;;;;;;27.58;17.35;;;13.60;65.10;;;;;;5058696;28;20373;-71
2021/03/27 12:47:36;;;;;;;24.60;18.48;;;13.50;66.30;;;;;;5076295;28;20031;-72
2021/03/27 12:50:31;;;;;;;21.98;17.83;;;13.60;65.80;;;;;;5076601;28;20024;-73
2021/03/27 12:53:23;;;;;;;21.98;18.15;;;13.50;65.40;;;;;;5050573;28;20035;-73
2021/03/27 12:56:14;;;;;;;26.40;17.95;;;13.30;65.70;;;;;;5076819;28;20036;-73
2021/03/27 12:58:50;;;;;;;21.20;17.05;;;13.20;65.80;;;;;;5076502;28;20029;-72
2021/03/27 13:01:18;;;;;;;;;;;13.10;67.10;;;;;;5076938;28;20421;-73
2021/03/27 13:04:26;;;;;;;22.90;16.05;;;13.00;67.90;;;;;;5076266;28;20040;-72
2021/03/27 13:07:19;;;;;;;23.60;16.35;;;12.90;68.70;;;;;;5075869;28;20101;-73
2021/03/27 13:09:57;;;;;;;25.98;16.40;;;12.80;70.20;;;;;;5076405;28;20150;-72
2021/03/27 13:13:04;;;;;;;39.15;26.65;;;12.80;70.00;;;;;;5076642;28;20040;-72
2021/03/27 13:15:41;;;;;;;25.80;20.33;;;12.80;70.50;;;;;;5014861;28;20054;-72
2021/03/27 13:18:18;;;;;;;26.15;18.90;;;12.80;70.50;;;;;;5068224;28;20037;-73
2021/03/27 13:20:56;;;;;;;22.80;17.45;;;12.80;70.20;;;;;;5077612;28;20024;-73
2021/03/27 13:23:26;;;;;;;32.80;18.45;;;12.80;70.90;;;;;;5080564;28;20328;-72
2021/03/27 13:26:03;;;;;;;26.27;18.77;;;12.90;69.90;;;;;;5079858;28;20060;-73
2021/03/27 13:28:52;;;;;;;22.58;16.42;;;13.00;69.20;;;;;;5080090;28;20100;-73
2021/03/27 13:31:22;;;;;;;22.92;17.67;;;13.00;69.80;;;;;;5080083;28;20052;-73
2021/03/27 13:34:10;;;;;;;23.52;17.17;;;13.10;70.80;;;;;;5062204;28;20384;-73
2021/03/27 13:36:56;;;;;;;20.65;17.63;;;13.00;69.10;;;;;;5080034;28;20051;-73
2021/03/27 13:40:09;;;;;;;22.35;17.38;;;13.10;70.00;;;;;;5079809;28;20032;-73
2021/03/27 13:42:44;;;;;;;26.35;18.17;;;13.30;68.10;;;;;;5018185;28;20040;-73
2021/03/27 13:45:21;;;;;;;28.63;19.30;;;13.30;67.60;;;;;;5018087;28;20026;-73
2021/03/27 13:48:21;;;;;;;26.20;17.52;;;13.40;67.70;;;;;;5059479;28;20070;-73
2021/03/27 13:51:05;;;;;;;23.52;15.68;;;13.40;67.80;;;;;;5068671;28;20043;-73
2021/03/27 13:53:39;;;;;;;22.60;17.00;;;13.50;68.00;;;;;;5079857;28;20029;-73
2021/03/27 13:56:26;;;;;;;24.20;17.40;;;13.50;69.20;;;;;;5080056;28;20043;-73
2021/03/27 13:59:10;;;;;;;27.20;16.83;;;13.50;69.80;;;;;;5079806;28;20039;-72